Saturday, October 20, 2018, 9:50 PM EDT
Back to Local

KMMK, Meriden Markham Municipal Airport

Location: Meriden, CT, United States Lat: 41.517
Local Time: 9:50 PM EDT ( 1:50 GMT) Lon: -72.833
Time Zone: US/Eastern Elev: 101 ft

Show me the last for .
Show Decoded

2018-10-20 20:53 METAR KMMK 210053Z AUTO 00000KT 10SM CLR 07/06 A2960 RMK AO2 SLP025 T00670056 $
                 =
2018-10-20 19:53 METAR KMMK 202353Z AUTO 00000KT 10SM CLR 08/06 A2960 RMK AO2 SLP024 T00830061
                 10178 20083 50008 $ =
2018-10-20 18:53 METAR KMMK 202253Z AUTO 31003KT 10SM CLR 12/07 A2961 RMK AO2 SLP025 T01170067 $
                 =
2018-10-20 17:53 METAR KMMK 202153Z AUTO 28003KT 10SM CLR 14/07 A2958 RMK AO2 SLP017 T01390072 $
                 =
2018-10-20 16:53 METAR KMMK 202053Z AUTO 29004KT 10SM BKN060 BKN085 17/06 A2958 RMK AO2 SLP016
                 T01670061 56019 $ =
2018-10-20 15:53 METAR KMMK 201953Z AUTO 26005KT 10SM BKN055 BKN070 BKN085 17/07 A2959 RMK AO2
                 SLP019 T01670067 $ =
2018-10-20 14:53 METAR KMMK 201853Z AUTO 26009KT 10SM CLR 17/07 A2960 RMK AO2 SLP024 T01720067 $
                 =
2018-10-20 13:53 METAR KMMK 201753Z AUTO 29010KT 10SM SCT039 BKN050 16/08 A2963 RMK AO2 SLP034
                 T01610078 10167 20122 58021 $ =
2018-10-20 12:53 METAR KMMK 201653Z AUTO 25005KT 10SM BKN039 OVC047 16/08 A2966 RMK AO2 SLP042
                 T01560083 $ =
2018-10-20 11:53 METAR KMMK 201553Z AUTO 24005G14KT 10SM SCT029 BKN035 16/09 A2968 RMK AO2 SLP050
                 T01560089 $ =
2018-10-20 11:30 METAR KMMK 201530Z AUTO 27008KT 10SM BKN030 OVC034 14/09 A2969 RMK AO2 T01440089
                 $ =
2018-10-20 10:53 METAR KMMK 201453Z AUTO 27012G18KT 10SM BKN028 15/09 A2970 RMK AO2 SLP055
                 T01500089 56011 $ =
2018-10-20 10:51 METAR KMMK 201451Z AUTO 28012G17KT 10SM BKN028 15/09 A2970 RMK AO2 $ =
2018-10-20 09:53 METAR KMMK 201353Z AUTO 22008KT 10SM FEW020 OVC075 14/10 A2971 RMK AO2 SLP060
                 T01390100 $ =
2018-10-20 09:31 METAR KMMK 201331Z AUTO VRB06KT 10SM SCT019 OVC070 13/09 A2972 RMK AO2 T01330094
                 $ =
2018-10-20 08:53 METAR KMMK 201253Z AUTO 23006KT 10SM OVC018 13/10 A2973 RMK AO2 SLP067 T01280100
                 $ =
2018-10-20 07:53 METAR KMMK 201153Z AUTO 19006KT 10SM BKN015 BKN029 OVC046 12/10 A2973 RMK AO2
                 SLP066 60001 70001 T01220100 10139 20111 55012 $ =
2018-10-20 06:53 METAR KMMK 201053Z AUTO 19005KT 10SM SCT045 OVC055 12/09 A2973 RMK AO2 SLP065
                 T01170094 $ =
2018-10-20 05:53 METAR KMMK 200953Z AUTO 18008KT 10SM OVC065 12/09 A2974 RMK AO2 RAE02 SLP069
                 P0000 T01170094 $ =
2018-10-20 04:53 METAR KMMK 200853Z AUTO 20004KT 10SM -RA BKN075 OVC095 12/09 A2976 RMK AO2
                 SLP078 P0001 60001 T01170089 57024 $ =
2018-10-20 03:53 METAR KMMK 200753Z AUTO 18008KT 10SM -RA OVC095 13/08 A2979 RMK AO2 RAB34 PRESFR
                 SLP086 P0000 T01280078 $ =
2018-10-20 02:53 METAR KMMK 200653Z AUTO 21009KT 10SM OVC100 14/07 A2981 RMK AO2 SLP094 T01390067
                 $ =
2018-10-20 01:53 METAR KMMK 200553Z AUTO 19008G16KT 10SM CLR 13/07 A2983 RMK AO2 SLP102 T01330067
                 10133 20078 58030 $ =
2018-10-20 00:53 METAR KMMK 200453Z AUTO 19006KT 10SM CLR 13/05 A2987 RMK AO2 SLP113 T01330050
                 401611028 $ =
2018-10-19 23:53 METAR KMMK 200353Z AUTO 20007KT 10SM CLR 12/06 A2991 RMK AO2 SLP127 T01220061 $
                 =
2018-10-19 22:53 METAR KMMK 200253Z AUTO 18004KT 10SM CLR 11/06 A2992 RMK AO2 SLP133 T01110061
                 58029 $ =
2018-10-19 21:53 METAR KMMK 200153Z AUTO 17003KT 10SM CLR 11/05 A2997 RMK AO2 SLP149 T01110050 $
                 =

Support USWX by starting your Amazon purchase here.